sensor_id;sensor_type;location;lat;lon;timestamp;P1;durP1;ratioP1;P2;durP2;ratioP2
69485;SDS011;56677;51.710;5.366;2022-09-12T00:01:20;5.35;;;3.33;;
69485;SDS011;56677;51.710;5.366;2022-09-12T00:03:46;7.65;;;3.47;;
69485;SDS011;56677;51.710;5.366;2022-09-12T00:06:12;5.73;;;3.43;;
69485;SDS011;56677;51.710;5.366;2022-09-12T00:08:38;5.93;;;3.53;;
69485;SDS011;56677;51.710;5.366;2022-09-12T00:11:05;5.60;;;4.00;;
69485;SDS011;56677;51.710;5.366;2022-09-12T00:13:30;6.03;;;3.80;;
69485;SDS011;56677;51.710;5.366;2022-09-12T00:15:55;5.30;;;3.30;;
69485;SDS011;56677;51.710;5.366;2022-09-12T00:18:20;5.15;;;3.47;;
69485;SDS011;56677;51.710;5.366;2022-09-12T00:20:46;5.05;;;3.42;;
69485;SDS011;56677;51.710;5.366;2022-09-12T00:23:11;5.82;;;3.22;;
69485;SDS011;56677;51.710;5.366;2022-09-12T00:25:43;5.63;;;3.33;;
69485;SDS011;56677;51.710;5.366;2022-09-12T00:28:09;5.60;;;3.70;;
69485;SDS011;56677;51.710;5.366;2022-09-12T00:30:38;7.37;;;4.20;;
69485;SDS011;56677;51.710;5.366;2022-09-12T00:33:03;4.93;;;3.67;;
69485;SDS011;56677;51.710;5.366;2022-09-12T00:35:28;6.40;;;3.58;;
69485;SDS011;56677;51.710;5.366;2022-09-12T00:37:53;6.05;;;3.83;;
69485;SDS011;56677;51.710;5.366;2022-09-12T00:40:19;6.18;;;3.30;;
69485;SDS011;56677;51.710;5.366;2022-09-12T00:42:44;6.28;;;3.30;;
69485;SDS011;56677;51.710;5.366;2022-09-12T00:45:14;5.83;;;3.70;;
69485;SDS011;56677;51.710;5.366;2022-09-12T00:47:43;5.83;;;3.80;;
69485;SDS011;56677;51.710;5.366;2022-09-12T00:50:09;6.07;;;3.83;;
69485;SDS011;56677;51.710;5.366;2022-09-12T00:52:40;5.97;;;3.53;;
69485;SDS011;56677;51.710;5.366;2022-09-12T00:55:11;5.90;;;3.85;;
69485;SDS011;56677;51.710;5.366;2022-09-12T00:57:51;5.50;;;3.60;;
69485;SDS011;56677;51.710;5.366;2022-09-12T01:00:18;5.50;;;3.83;;
69485;SDS011;56677;51.710;5.366;2022-09-12T01:02:47;5.20;;;3.50;;
69485;SDS011;56677;51.710;5.366;2022-09-12T01:05:13;6.17;;;3.70;;
69485;SDS011;56677;51.710;5.366;2022-09-12T01:07:38;5.17;;;3.60;;
69485;SDS011;56677;51.710;5.366;2022-09-12T01:10:04;5.80;;;3.42;;
69485;SDS011;56677;51.710;5.366;2022-09-12T01:12:29;6.03;;;3.80;;
69485;SDS011;56677;51.710;5.366;2022-09-12T01:14:55;4.97;;;3.40;;
69485;SDS011;56677;51.710;5.366;2022-09-12T01:17:20;6.67;;;3.57;;
69485;SDS011;56677;51.710;5.366;2022-09-12T01:22:30;6.07;;;4.00;;
69485;SDS011;56677;51.710;5.366;2022-09-12T01:32:32;5.82;;;3.63;;
69485;SDS011;56677;51.710;5.366;2022-09-12T01:35:03;6.30;;;4.03;;
69485;SDS011;56677;51.710;5.366;2022-09-12T01:37:37;5.40;;;3.60;;
69485;SDS011;56677;51.710;5.366;2022-09-12T01:43:03;6.22;;;3.42;;
69485;SDS011;56677;51.710;5.366;2022-09-12T01:45:32;5.90;;;3.70;;
69485;SDS011;56677;51.710;5.366;2022-09-12T01:48:12;5.50;;;3.53;;
69485;SDS011;56677;51.710;5.366;2022-09-12T01:50:45;7.28;;;3.70;;
69485;SDS011;56677;51.710;5.366;2022-09-12T01:53:16;6.95;;;3.83;;
69485;SDS011;56677;51.710;5.366;2022-09-12T01:55:51;5.95;;;3.55;;
69485;SDS011;56677;51.710;5.366;2022-09-12T01:58:21;7.38;;;3.90;;
69485;SDS011;56677;51.710;5.366;2022-09-12T02:00:55;6.57;;;4.03;;
69485;SDS011;56677;51.710;5.366;2022-09-12T02:03:23;6.55;;;3.83;;
69485;SDS011;56677;51.710;5.366;2022-09-12T02:05:58;6.20;;;3.70;;
69485;SDS011;56677;51.710;5.366;2022-09-12T02:08:30;6.63;;;3.60;;
69485;SDS011;56677;51.710;5.366;2022-09-12T02:11:02;6.05;;;3.65;;
69485;SDS011;56677;51.710;5.366;2022-09-12T02:13:38;5.90;;;3.63;;
69485;SDS011;56677;51.710;5.366;2022-09-12T02:16:06;6.78;;;3.38;;
69485;SDS011;56677;51.710;5.366;2022-09-12T02:18:32;6.65;;;3.60;;
69485;SDS011;56677;51.710;5.366;2022-09-12T02:20:58;5.30;;;3.43;;
69485;SDS011;56677;51.710;5.366;2022-09-12T02:23:28;6.40;;;3.70;;
69485;SDS011;56677;51.710;5.366;2022-09-12T02:25:59;6.32;;;3.85;;
69485;SDS011;56677;51.710;5.366;2022-09-12T02:28:30;7.70;;;3.83;;
69485;SDS011;56677;51.710;5.366;2022-09-12T02:31:09;6.72;;;4.00;;
69485;SDS011;56677;51.710;5.366;2022-09-12T02:34:21;6.40;;;3.57;;
69485;SDS011;56677;51.710;5.366;2022-09-12T02:36:33;6.38;;;3.83;;
69485;SDS011;56677;51.710;5.366;2022-09-12T02:39:01;6.50;;;3.65;;
69485;SDS011;56677;51.710;5.366;2022-09-12T02:41:26;5.83;;;3.70;;
69485;SDS011;56677;51.710;5.366;2022-09-12T02:43:52;7.20;;;4.00;;
69485;SDS011;56677;51.710;5.366;2022-09-12T02:46:19;5.73;;;3.50;;
69485;SDS011;56677;51.710;5.366;2022-09-12T02:48:45;5.80;;;3.70;;
69485;SDS011;56677;51.710;5.366;2022-09-12T02:51:11;5.80;;;4.07;;
69485;SDS011;56677;51.710;5.366;2022-09-12T02:53:36;6.07;;;3.90;;
69485;SDS011;56677;51.710;5.366;2022-09-12T02:56:03;5.80;;;3.70;;
69485;SDS011;56677;51.710;5.366;2022-09-12T02:58:31;5.67;;;3.60;;
69485;SDS011;56677;51.710;5.366;2022-09-12T03:08:52;6.47;;;3.80;;
69485;SDS011;56677;51.710;5.366;2022-09-12T03:11:28;5.55;;;3.40;;
69485;SDS011;56677;51.710;5.366;2022-09-12T03:16:39;6.20;;;3.90;;
69485;SDS011;56677;51.710;5.366;2022-09-12T03:24:20;7.88;;;3.92;;
69485;SDS011;56677;51.710;5.366;2022-09-12T03:27:09;6.07;;;3.40;;
69485;SDS011;56677;51.710;5.366;2022-09-12T03:29:36;5.68;;;3.75;;
69485;SDS011;56677;51.710;5.366;2022-09-12T03:32:02;8.60;;;3.72;;
69485;SDS011;56677;51.710;5.366;2022-09-12T03:34:27;6.03;;;3.63;;
69485;SDS011;56677;51.710;5.366;2022-09-12T03:36:53;6.30;;;3.80;;
69485;SDS011;56677;51.710;5.366;2022-09-12T03:39:18;7.23;;;3.43;;
69485;SDS011;56677;51.710;5.366;2022-09-12T03:41:43;5.65;;;3.53;;
69485;SDS011;56677;51.710;5.366;2022-09-12T03:44:08;5.97;;;3.70;;
69485;SDS011;56677;51.710;5.366;2022-09-12T03:46:33;7.18;;;4.25;;
69485;SDS011;56677;51.710;5.366;2022-09-12T03:48:58;6.70;;;4.00;;
69485;SDS011;56677;51.710;5.366;2022-09-12T03:51:24;5.90;;;3.78;;
69485;SDS011;56677;51.710;5.366;2022-09-12T03:53:49;7.13;;;3.33;;
69485;SDS011;56677;51.710;5.366;2022-09-12T03:56:14;6.65;;;4.00;;
69485;SDS011;56677;51.710;5.366;2022-09-12T03:58:39;6.00;;;3.55;;
69485;SDS011;56677;51.710;5.366;2022-09-12T04:01:08;7.00;;;4.03;;
69485;SDS011;56677;51.710;5.366;2022-09-12T04:03:33;6.57;;;4.23;;
69485;SDS011;56677;51.710;5.366;2022-09-12T04:05:58;6.40;;;3.17;;
69485;SDS011;56677;51.710;5.366;2022-09-12T04:08:23;6.05;;;3.63;;
69485;SDS011;56677;51.710;5.366;2022-09-12T04:10:48;7.43;;;3.83;;
69485;SDS011;56677;51.710;5.366;2022-09-12T04:13:13;5.70;;;4.03;;
69485;SDS011;56677;51.710;5.366;2022-09-12T04:15:39;6.22;;;3.60;;
69485;SDS011;56677;51.710;5.366;2022-09-12T04:18:04;6.25;;;4.10;;
69485;SDS011;56677;51.710;5.366;2022-09-12T04:20:29;6.20;;;3.70;;
69485;SDS011;56677;51.710;5.366;2022-09-12T04:22:54;6.95;;;3.80;;
69485;SDS011;56677;51.710;5.366;2022-09-12T04:25:19;5.73;;;3.67;;
69485;SDS011;56677;51.710;5.366;2022-09-12T04:27:44;6.35;;;4.00;;
69485;SDS011;56677;51.710;5.366;2022-09-12T04:30:09;7.32;;;4.00;;
69485;SDS011;56677;51.710;5.366;2022-09-12T04:32:35;7.80;;;4.03;;
69485;SDS011;56677;51.710;5.366;2022-09-12T04:35:00;6.97;;;3.75;;
69485;SDS011;56677;51.710;5.366;2022-09-12T04:37:25;6.47;;;3.85;;
69485;SDS011;56677;51.710;5.366;2022-09-12T04:39:50;6.07;;;3.45;;
69485;SDS011;56677;51.710;5.366;2022-09-12T04:42:15;6.37;;;3.60;;
69485;SDS011;56677;51.710;5.366;2022-09-12T04:44:41;6.23;;;3.73;;
69485;SDS011;56677;51.710;5.366;2022-09-12T04:47:06;6.30;;;3.73;;
69485;SDS011;56677;51.710;5.366;2022-09-12T04:49:31;8.10;;;3.67;;
69485;SDS011;56677;51.710;5.366;2022-09-12T04:51:57;6.60;;;3.80;;
69485;SDS011;56677;51.710;5.366;2022-09-12T04:54:22;6.03;;;4.07;;
69485;SDS011;56677;51.710;5.366;2022-09-12T04:56:48;5.80;;;3.37;;
69485;SDS011;56677;51.710;5.366;2022-09-12T04:59:15;6.65;;;4.15;;
69485;SDS011;56677;51.710;5.366;2022-09-12T05:01:40;7.03;;;3.95;;
69485;SDS011;56677;51.710;5.366;2022-09-12T05:04:05;8.20;;;4.60;;
69485;SDS011;56677;51.710;5.366;2022-09-12T05:06:32;6.00;;;3.83;;
69485;SDS011;56677;51.710;5.366;2022-09-12T05:08:58;6.72;;;3.83;;
69485;SDS011;56677;51.710;5.366;2022-09-12T05:11:24;5.87;;;3.60;;
69485;SDS011;56677;51.710;5.366;2022-09-12T05:13:50;6.35;;;4.13;;
69485;SDS011;56677;51.710;5.366;2022-09-12T05:16:15;6.63;;;4.00;;
69485;SDS011;56677;51.710;5.366;2022-09-12T05:18:41;6.13;;;3.97;;
69485;SDS011;56677;51.710;5.366;2022-09-12T05:21:07;6.33;;;3.93;;
69485;SDS011;56677;51.710;5.366;2022-09-12T05:23:32;6.43;;;3.80;;
69485;SDS011;56677;51.710;5.366;2022-09-12T05:25:58;6.72;;;4.03;;
69485;SDS011;56677;51.710;5.366;2022-09-12T05:28:24;7.40;;;4.30;;
69485;SDS011;56677;51.710;5.366;2022-09-12T05:30:59;7.40;;;4.17;;
69485;SDS011;56677;51.710;5.366;2022-09-12T05:33:24;6.43;;;3.83;;
69485;SDS011;56677;51.710;5.366;2022-09-12T05:35:52;6.45;;;4.18;;
69485;SDS011;56677;51.710;5.366;2022-09-12T05:38:17;7.43;;;3.97;;
69485;SDS011;56677;51.710;5.366;2022-09-12T05:40:42;7.63;;;4.50;;
69485;SDS011;56677;51.710;5.366;2022-09-12T05:43:07;6.53;;;3.90;;
69485;SDS011;56677;51.710;5.366;2022-09-12T05:45:32;8.17;;;4.47;;
69485;SDS011;56677;51.710;5.366;2022-09-12T05:47:57;6.57;;;4.05;;
69485;SDS011;56677;51.710;5.366;2022-09-12T05:50:23;7.22;;;4.35;;
69485;SDS011;56677;51.710;5.366;2022-09-12T05:52:48;6.75;;;3.80;;
69485;SDS011;56677;51.710;5.366;2022-09-12T05:55:13;7.63;;;4.73;;
69485;SDS011;56677;51.710;5.366;2022-09-12T05:57:38;7.23;;;4.23;;
69485;SDS011;56677;51.710;5.366;2022-09-12T06:00:03;7.32;;;4.32;;
69485;SDS011;56677;51.710;5.366;2022-09-12T06:02:29;9.68;;;4.50;;
69485;SDS011;56677;51.710;5.366;2022-09-12T06:04:54;6.63;;;4.20;;
69485;SDS011;56677;51.710;5.366;2022-09-12T06:07:19;6.33;;;4.20;;
69485;SDS011;56677;51.710;5.366;2022-09-12T06:09:44;6.60;;;3.97;;
69485;SDS011;56677;51.710;5.366;2022-09-12T06:12:09;6.30;;;3.72;;
69485;SDS011;56677;51.710;5.366;2022-09-12T06:14:34;6.03;;;3.58;;
69485;SDS011;56677;51.710;5.366;2022-09-12T06:16:59;5.15;;;3.40;;
69485;SDS011;56677;51.710;5.366;2022-09-12T06:19:24;5.22;;;3.38;;
69485;SDS011;56677;51.710;5.366;2022-09-12T06:21:49;7.00;;;3.23;;
69485;SDS011;56677;51.710;5.366;2022-09-12T06:24:15;5.35;;;3.40;;
69485;SDS011;56677;51.710;5.366;2022-09-12T06:26:41;6.72;;;3.17;;
69485;SDS011;56677;51.710;5.366;2022-09-12T06:29:06;5.18;;;3.08;;
69485;SDS011;56677;51.710;5.366;2022-09-12T06:31:32;5.20;;;3.25;;
69485;SDS011;56677;51.710;5.366;2022-09-12T06:33:59;11.93;;;7.37;;
69485;SDS011;56677;51.710;5.366;2022-09-12T06:36:25;11.63;;;6.78;;
69485;SDS011;56677;51.710;5.366;2022-09-12T06:38:54;11.00;;;6.13;;
69485;SDS011;56677;51.710;5.366;2022-09-12T06:41:20;9.35;;;5.93;;
69485;SDS011;56677;51.710;5.366;2022-09-12T06:43:45;8.57;;;5.57;;
69485;SDS011;56677;51.710;5.366;2022-09-12T06:46:10;8.77;;;4.43;;
69485;SDS011;56677;51.710;5.366;2022-09-12T06:48:35;6.80;;;4.30;;
69485;SDS011;56677;51.710;5.366;2022-09-12T06:51:11;7.97;;;4.60;;
69485;SDS011;56677;51.710;5.366;2022-09-12T06:53:36;7.80;;;4.10;;
69485;SDS011;56677;51.710;5.366;2022-09-12T06:56:05;7.13;;;4.10;;
69485;SDS011;56677;51.710;5.366;2022-09-12T06:58:31;6.40;;;4.03;;
69485;SDS011;56677;51.710;5.366;2022-09-12T07:01:00;6.78;;;4.15;;
69485;SDS011;56677;51.710;5.366;2022-09-12T07:03:26;9.70;;;5.03;;
69485;SDS011;56677;51.710;5.366;2022-09-12T07:05:51;9.15;;;4.65;;
69485;SDS011;56677;51.710;5.366;2022-09-12T07:08:16;7.37;;;4.50;;
69485;SDS011;56677;51.710;5.366;2022-09-12T07:10:41;7.75;;;4.40;;
69485;SDS011;56677;51.710;5.366;2022-09-12T07:13:06;9.38;;;4.70;;
69485;SDS011;56677;51.710;5.366;2022-09-12T07:15:33;7.70;;;4.57;;
69485;SDS011;56677;51.710;5.366;2022-09-12T07:17:58;7.47;;;4.20;;
69485;SDS011;56677;51.710;5.366;2022-09-12T07:20:23;7.05;;;4.53;;
69485;SDS011;56677;51.710;5.366;2022-09-12T07:22:49;7.28;;;3.90;;
69485;SDS011;56677;51.710;5.366;2022-09-12T07:25:14;7.97;;;4.43;;
69485;SDS011;56677;51.710;5.366;2022-09-12T07:27:39;9.40;;;4.20;;
69485;SDS011;56677;51.710;5.366;2022-09-12T07:30:04;6.93;;;4.50;;
69485;SDS011;56677;51.710;5.366;2022-09-12T07:32:30;7.63;;;3.95;;
69485;SDS011;56677;51.710;5.366;2022-09-12T07:34:55;8.18;;;4.22;;
69485;SDS011;56677;51.710;5.366;2022-09-12T07:37:20;7.43;;;4.93;;
69485;SDS011;56677;51.710;5.366;2022-09-12T07:39:45;6.10;;;3.97;;
69485;SDS011;56677;51.710;5.366;2022-09-12T07:42:10;6.90;;;4.38;;
69485;SDS011;56677;51.710;5.366;2022-09-12T07:44:35;7.50;;;4.30;;
69485;SDS011;56677;51.710;5.366;2022-09-12T07:47:00;7.30;;;4.15;;
69485;SDS011;56677;51.710;5.366;2022-09-12T07:49:25;7.57;;;4.45;;
69485;SDS011;56677;51.710;5.366;2022-09-12T07:51:50;6.77;;;4.10;;
69485;SDS011;56677;51.710;5.366;2022-09-12T07:54:16;7.35;;;4.35;;
69485;SDS011;56677;51.710;5.366;2022-09-12T07:56:41;7.67;;;4.50;;
69485;SDS011;56677;51.710;5.366;2022-09-12T07:59:07;6.53;;;4.10;;
69485;SDS011;56677;51.710;5.366;2022-09-12T08:01:32;7.53;;;4.15;;
69485;SDS011;56677;51.710;5.366;2022-09-12T08:03:58;6.82;;;3.58;;
69485;SDS011;56677;51.710;5.366;2022-09-12T08:06:23;6.33;;;4.13;;
69485;SDS011;56677;51.710;5.366;2022-09-12T08:08:49;7.07;;;3.93;;
69485;SDS011;56677;51.710;5.366;2022-09-12T08:11:15;6.63;;;4.25;;
69485;SDS011;56677;51.710;5.366;2022-09-12T08:13:41;6.35;;;3.85;;
69485;SDS011;56677;51.710;5.366;2022-09-12T08:16:11;6.53;;;4.00;;
69485;SDS011;56677;51.710;5.366;2022-09-12T08:18:36;6.13;;;4.03;;
69485;SDS011;56677;51.710;5.366;2022-09-12T08:21:06;7.70;;;3.70;;
69485;SDS011;56677;51.710;5.366;2022-09-12T08:23:31;6.78;;;3.95;;
69485;SDS011;56677;51.710;5.366;2022-09-12T08:25:58;5.50;;;3.45;;
69485;SDS011;56677;51.710;5.366;2022-09-12T08:28:23;7.03;;;4.13;;
69485;SDS011;56677;51.710;5.366;2022-09-12T08:30:49;6.97;;;4.00;;
69485;SDS011;56677;51.710;5.366;2022-09-12T08:33:14;5.53;;;3.47;;
69485;SDS011;56677;51.710;5.366;2022-09-12T08:35:39;6.67;;;4.00;;
69485;SDS011;56677;51.710;5.366;2022-09-12T08:38:04;7.97;;;4.50;;
69485;SDS011;56677;51.710;5.366;2022-09-12T08:40:29;7.43;;;3.90;;
69485;SDS011;56677;51.710;5.366;2022-09-12T08:43:06;5.90;;;3.60;;
69485;SDS011;56677;51.710;5.366;2022-09-12T08:45:35;8.27;;;3.78;;
69485;SDS011;56677;51.710;5.366;2022-09-12T08:48:02;6.07;;;3.50;;
69485;SDS011;56677;51.710;5.366;2022-09-12T08:50:28;5.22;;;3.50;;
69485;SDS011;56677;51.710;5.366;2022-09-12T08:55:23;6.63;;;3.80;;
69485;SDS011;56677;51.710;5.366;2022-09-12T08:57:48;5.10;;;3.25;;
69485;SDS011;56677;51.710;5.366;2022-09-12T09:00:14;5.27;;;3.53;;
69485;SDS011;56677;51.710;5.366;2022-09-12T09:05:13;5.88;;;3.13;;
69485;SDS011;56677;51.710;5.366;2022-09-12T09:17:58;5.93;;;3.47;;
69485;SDS011;56677;51.710;5.366;2022-09-12T09:20:27;5.82;;;3.60;;
69485;SDS011;56677;51.710;5.366;2022-09-12T09:25:23;6.45;;;3.40;;
69485;SDS011;56677;51.710;5.366;2022-09-12T09:30:18;5.70;;;3.17;;
69485;SDS011;56677;51.710;5.366;2022-09-12T09:32:44;5.85;;;3.33;;
69485;SDS011;56677;51.710;5.366;2022-09-12T09:35:13;5.57;;;3.50;;
69485;SDS011;56677;51.710;5.366;2022-09-12T09:37:42;6.63;;;3.28;;
69485;SDS011;56677;51.710;5.366;2022-09-12T09:40:20;4.68;;;3.13;;
69485;SDS011;56677;51.710;5.366;2022-09-12T09:42:57;6.43;;;3.47;;
69485;SDS011;56677;51.710;5.366;2022-09-12T09:45:25;4.80;;;2.95;;
69485;SDS011;56677;51.710;5.366;2022-09-12T09:47:54;5.97;;;3.83;;
69485;SDS011;56677;51.710;5.366;2022-09-12T09:50:21;6.22;;;3.80;;
69485;SDS011;56677;51.710;5.366;2022-09-12T09:52:46;7.10;;;3.50;;
69485;SDS011;56677;51.710;5.366;2022-09-12T09:55:17;5.75;;;3.10;;
69485;SDS011;56677;51.710;5.366;2022-09-12T09:57:44;11.25;;;3.53;;
69485;SDS011;56677;51.710;5.366;2022-09-12T10:00:25;5.13;;;3.40;;
69485;SDS011;56677;51.710;5.366;2022-09-12T10:02:59;5.83;;;3.20;;
69485;SDS011;56677;51.710;5.366;2022-09-12T10:05:24;6.43;;;3.22;;
69485;SDS011;56677;51.710;5.366;2022-09-12T10:07:50;5.27;;;3.37;;
69485;SDS011;56677;51.710;5.366;2022-09-12T10:10:16;5.40;;;3.22;;
69485;SDS011;56677;51.710;5.366;2022-09-12T10:12:42;5.07;;;3.03;;
69485;SDS011;56677;51.710;5.366;2022-09-12T10:15:20;5.23;;;3.40;;
69485;SDS011;56677;51.710;5.366;2022-09-12T10:17:46;6.03;;;3.10;;
69485;SDS011;56677;51.710;5.366;2022-09-12T10:20:34;5.67;;;3.10;;
69485;SDS011;56677;51.710;5.366;2022-09-12T10:23:19;4.75;;;2.90;;
69485;SDS011;56677;51.710;5.366;2022-09-12T10:25:45;5.20;;;2.78;;
69485;SDS011;56677;51.710;5.366;2022-09-12T10:28:11;5.40;;;2.88;;
69485;SDS011;56677;51.710;5.366;2022-09-12T10:30:49;4.45;;;2.95;;
69485;SDS011;56677;51.710;5.366;2022-09-12T10:33:14;5.63;;;3.00;;
69485;SDS011;56677;51.710;5.366;2022-09-12T10:35:47;5.57;;;3.33;;
69485;SDS011;56677;51.710;5.366;2022-09-12T10:40:41;4.22;;;2.67;;
69485;SDS011;56677;51.710;5.366;2022-09-12T10:43:17;4.75;;;2.90;;
69485;SDS011;56677;51.710;5.366;2022-09-12T10:45:48;5.28;;;2.83;;
69485;SDS011;56677;51.710;5.366;2022-09-12T10:48:29;4.67;;;3.03;;
69485;SDS011;56677;51.710;5.366;2022-09-12T10:50:55;4.23;;;2.70;;
69485;SDS011;56677;51.710;5.366;2022-09-12T10:53:24;4.78;;;3.13;;
69485;SDS011;56677;51.710;5.366;2022-09-12T11:06:21;5.55;;;3.10;;
69485;SDS011;56677;51.710;5.366;2022-09-12T11:11:48;4.13;;;2.50;;
69485;SDS011;56677;51.710;5.366;2022-09-12T11:34:07;4.65;;;3.00;;
69485;SDS011;56677;51.710;5.366;2022-09-12T11:36:35;4.25;;;2.60;;
69485;SDS011;56677;51.710;5.366;2022-09-12T11:39:07;5.03;;;3.00;;
69485;SDS011;56677;51.710;5.366;2022-09-12T11:41:36;4.20;;;2.77;;
69485;SDS011;56677;51.710;5.366;2022-09-12T11:46:37;4.38;;;3.03;;
69485;SDS011;56677;51.710;5.366;2022-09-12T11:49:04;6.35;;;3.10;;
69485;SDS011;56677;51.710;5.366;2022-09-12T12:02:41;5.50;;;2.80;;
69485;SDS011;56677;51.710;5.366;2022-09-12T12:07:55;5.10;;;3.27;;
69485;SDS011;56677;51.710;5.366;2022-09-12T12:10:22;4.47;;;2.80;;
69485;SDS011;56677;51.710;5.366;2022-09-12T12:12:48;4.65;;;2.90;;
69485;SDS011;56677;51.710;5.366;2022-09-12T12:15:13;4.90;;;3.30;;
69485;SDS011;56677;51.710;5.366;2022-09-12T12:17:40;5.22;;;3.03;;
69485;SDS011;56677;51.710;5.366;2022-09-12T12:20:05;4.40;;;3.00;;
69485;SDS011;56677;51.710;5.366;2022-09-12T12:22:30;4.63;;;2.40;;
69485;SDS011;56677;51.710;5.366;2022-09-12T12:27:44;5.07;;;3.10;;
69485;SDS011;56677;51.710;5.366;2022-09-12T12:32:57;5.63;;;2.80;;
69485;SDS011;56677;51.710;5.366;2022-09-12T12:40:51;4.30;;;2.57;;
69485;SDS011;56677;51.710;5.366;2022-09-12T12:43:30;4.10;;;2.50;;
69485;SDS011;56677;51.710;5.366;2022-09-12T12:46:00;4.53;;;2.92;;
69485;SDS011;56677;51.710;5.366;2022-09-12T12:48:25;4.63;;;2.92;;
69485;SDS011;56677;51.710;5.366;2022-09-12T12:50:53;4.35;;;2.75;;
69485;SDS011;56677;51.710;5.366;2022-09-12T12:53:20;3.90;;;2.50;;
69485;SDS011;56677;51.710;5.366;2022-09-12T12:55:47;5.10;;;3.00;;
69485;SDS011;56677;51.710;5.366;2022-09-12T13:00:44;4.30;;;2.78;;
69485;SDS011;56677;51.710;5.366;2022-09-12T13:03:17;4.13;;;2.87;;
69485;SDS011;56677;51.710;5.366;2022-09-12T13:05:47;4.88;;;2.40;;
69485;SDS011;56677;51.710;5.366;2022-09-12T13:11:15;5.18;;;2.95;;
69485;SDS011;56677;51.710;5.366;2022-09-12T13:13:35;4.50;;;2.42;;
69485;SDS011;56677;51.710;5.366;2022-09-12T13:16:02;5.10;;;2.50;;
69485;SDS011;56677;51.710;5.366;2022-09-12T13:18:28;4.43;;;2.70;;
69485;SDS011;56677;51.710;5.366;2022-09-12T13:21:06;3.70;;;2.47;;
69485;SDS011;56677;51.710;5.366;2022-09-12T13:23:33;3.67;;;2.30;;
69485;SDS011;56677;51.710;5.366;2022-09-12T13:25:59;3.93;;;2.57;;
69485;SDS011;56677;51.710;5.366;2022-09-12T13:28:25;3.90;;;2.50;;
69485;SDS011;56677;51.710;5.366;2022-09-12T13:33:28;4.90;;;2.83;;
69485;SDS011;56677;51.710;5.366;2022-09-12T13:43:41;4.97;;;2.60;;
69485;SDS011;56677;51.710;5.366;2022-09-12T13:46:07;5.20;;;2.55;;
69485;SDS011;56677;51.710;5.366;2022-09-12T13:48:33;6.15;;;2.58;;
69485;SDS011;56677;51.710;5.366;2022-09-12T13:51:01;3.60;;;2.30;;
69485;SDS011;56677;51.710;5.366;2022-09-12T13:53:29;3.92;;;2.15;;
69485;SDS011;56677;51.710;5.366;2022-09-12T13:55:58;3.63;;;2.30;;
69485;SDS011;56677;51.710;5.366;2022-09-12T13:58:30;3.47;;;2.20;;
69485;SDS011;56677;51.710;5.366;2022-09-12T14:03:25;6.53;;;2.40;;
69485;SDS011;56677;51.710;5.366;2022-09-12T14:05:54;3.90;;;2.22;;
69485;SDS011;56677;51.710;5.366;2022-09-12T14:08:20;3.92;;;2.45;;
69485;SDS011;56677;51.710;5.366;2022-09-12T14:10:46;3.37;;;2.20;;
69485;SDS011;56677;51.710;5.366;2022-09-12T14:13:12;5.10;;;2.33;;
69485;SDS011;56677;51.710;5.366;2022-09-12T14:15:40;6.43;;;2.88;;
69485;SDS011;56677;51.710;5.366;2022-09-12T14:18:18;3.88;;;2.40;;
69485;SDS011;56677;51.710;5.366;2022-09-12T14:20:45;4.40;;;2.28;;
69485;SDS011;56677;51.710;5.366;2022-09-12T14:23:27;4.63;;;2.30;;
69485;SDS011;56677;51.710;5.366;2022-09-12T14:25:53;4.07;;;2.30;;
69485;SDS011;56677;51.710;5.366;2022-09-12T14:28:18;3.83;;;2.53;;
69485;SDS011;56677;51.710;5.366;2022-09-12T14:30:56;4.13;;;2.07;;
69485;SDS011;56677;51.710;5.366;2022-09-12T14:33:21;5.25;;;2.20;;
69485;SDS011;56677;51.710;5.366;2022-09-12T14:35:48;4.37;;;2.23;;
69485;SDS011;56677;51.710;5.366;2022-09-12T14:40:45;4.43;;;2.42;;
69485;SDS011;56677;51.710;5.366;2022-09-12T14:46:06;2.95;;;1.73;;
69485;SDS011;56677;51.710;5.366;2022-09-12T14:48:33;4.07;;;2.30;;
69485;SDS011;56677;51.710;5.366;2022-09-12T14:50:59;4.30;;;2.27;;
69485;SDS011;56677;51.710;5.366;2022-09-12T14:53:30;4.85;;;2.30;;
69485;SDS011;56677;51.710;5.366;2022-09-12T14:58:24;3.63;;;1.98;;
69485;SDS011;56677;51.710;5.366;2022-09-12T15:03:25;4.10;;;2.22;;
69485;SDS011;56677;51.710;5.366;2022-09-12T15:05:51;4.57;;;2.60;;
69485;SDS011;56677;51.710;5.366;2022-09-12T15:08:16;3.80;;;2.43;;
69485;SDS011;56677;51.710;5.366;2022-09-12T15:10:41;4.60;;;2.60;;
69485;SDS011;56677;51.710;5.366;2022-09-12T15:15:35;4.03;;;2.57;;
69485;SDS011;56677;51.710;5.366;2022-09-12T15:18:01;3.33;;;2.30;;
69485;SDS011;56677;51.710;5.366;2022-09-12T15:20:26;4.90;;;2.27;;
69485;SDS011;56677;51.710;5.366;2022-09-12T15:22:51;4.87;;;2.20;;
69485;SDS011;56677;51.710;5.366;2022-09-12T15:25:16;4.43;;;2.22;;
69485;SDS011;56677;51.710;5.366;2022-09-12T15:27:42;6.47;;;2.63;;
69485;SDS011;56677;51.710;5.366;2022-09-12T15:30:07;4.23;;;2.20;;
69485;SDS011;56677;51.710;5.366;2022-09-12T15:32:32;3.63;;;2.30;;
69485;SDS011;56677;51.710;5.366;2022-09-12T15:34:58;5.07;;;2.17;;
69485;SDS011;56677;51.710;5.366;2022-09-12T15:37:23;3.60;;;2.00;;
69485;SDS011;56677;51.710;5.366;2022-09-12T15:39:48;4.53;;;1.90;;
69485;SDS011;56677;51.710;5.366;2022-09-12T15:42:14;4.73;;;1.70;;
69485;SDS011;56677;51.710;5.366;2022-09-12T15:44:39;4.05;;;2.05;;
69485;SDS011;56677;51.710;5.366;2022-09-12T15:47:04;3.13;;;2.10;;
69485;SDS011;56677;51.710;5.366;2022-09-12T15:49:30;4.27;;;2.30;;
69485;SDS011;56677;51.710;5.366;2022-09-12T15:51:55;4.43;;;1.97;;
69485;SDS011;56677;51.710;5.366;2022-09-12T15:54:20;3.00;;;1.83;;
69485;SDS011;56677;51.710;5.366;2022-09-12T15:56:45;4.80;;;2.30;;
69485;SDS011;56677;51.710;5.366;2022-09-12T15:59:10;4.70;;;2.40;;
69485;SDS011;56677;51.710;5.366;2022-09-12T16:01:35;4.30;;;2.05;;
69485;SDS011;56677;51.710;5.366;2022-09-12T16:04:01;3.93;;;2.20;;
69485;SDS011;56677;51.710;5.366;2022-09-12T16:06:26;8.00;;;2.50;;
69485;SDS011;56677;51.710;5.366;2022-09-12T16:08:51;4.28;;;2.10;;
69485;SDS011;56677;51.710;5.366;2022-09-12T16:11:20;3.72;;;1.80;;
69485;SDS011;56677;51.710;5.366;2022-09-12T16:13:46;3.53;;;2.28;;
69485;SDS011;56677;51.710;5.366;2022-09-12T16:16:11;4.53;;;2.17;;
69485;SDS011;56677;51.710;5.366;2022-09-12T16:18:39;3.78;;;2.17;;
69485;SDS011;56677;51.710;5.366;2022-09-12T16:21:05;5.07;;;2.33;;
69485;SDS011;56677;51.710;5.366;2022-09-12T16:23:30;4.07;;;2.10;;
69485;SDS011;56677;51.710;5.366;2022-09-12T16:25:56;3.63;;;2.30;;
69485;SDS011;56677;51.710;5.366;2022-09-12T16:28:21;4.25;;;2.10;;
69485;SDS011;56677;51.710;5.366;2022-09-12T16:30:53;5.65;;;2.40;;
69485;SDS011;56677;51.710;5.366;2022-09-12T16:33:18;3.97;;;2.38;;
69485;SDS011;56677;51.710;5.366;2022-09-12T16:35:44;4.22;;;2.22;;
69485;SDS011;56677;51.710;5.366;2022-09-12T16:38:09;4.93;;;2.23;;
69485;SDS011;56677;51.710;5.366;2022-09-12T16:40:34;5.28;;;2.00;;
69485;SDS011;56677;51.710;5.366;2022-09-12T16:42:59;4.47;;;1.80;;
69485;SDS011;56677;51.710;5.366;2022-09-12T16:45:24;6.93;;;1.80;;
69485;SDS011;56677;51.710;5.366;2022-09-12T16:47:49;3.60;;;1.83;;
69485;SDS011;56677;51.710;5.366;2022-09-12T16:50:14;3.42;;;1.92;;
69485;SDS011;56677;51.710;5.366;2022-09-12T16:52:40;3.73;;;2.00;;
69485;SDS011;56677;51.710;5.366;2022-09-12T16:55:05;5.53;;;1.83;;
69485;SDS011;56677;51.710;5.366;2022-09-12T16:57:30;2.95;;;1.75;;
69485;SDS011;56677;51.710;5.366;2022-09-12T16:59:56;4.10;;;1.90;;
69485;SDS011;56677;51.710;5.366;2022-09-12T17:02:21;3.75;;;2.00;;
69485;SDS011;56677;51.710;5.366;2022-09-12T17:04:47;6.35;;;2.40;;
69485;SDS011;56677;51.710;5.366;2022-09-12T17:07:12;4.60;;;1.80;;
69485;SDS011;56677;51.710;5.366;2022-09-12T17:09:37;3.77;;;1.70;;
69485;SDS011;56677;51.710;5.366;2022-09-12T17:12:02;5.80;;;2.07;;